createdAt,value
2018-07-09T00:02:00.077Z,19.23
2018-07-09T00:04:29.336Z,19.04
2018-07-09T00:06:58.556Z,18.83
2018-07-09T00:09:27.812Z,18.86
2018-07-09T00:11:57.052Z,18.83
2018-07-09T00:14:26.309Z,18.80
2018-07-09T00:16:55.556Z,18.79
2018-07-09T00:19:24.701Z,18.71
2018-07-09T00:21:54.009Z,18.63
2018-07-09T00:24:23.212Z,18.62
2018-07-09T00:26:52.499Z,18.67
2018-07-09T00:29:21.793Z,18.66
2018-07-09T00:31:51.057Z,18.62
2018-07-09T00:34:20.438Z,18.54
2018-07-09T00:36:49.648Z,18.53
2018-07-09T00:39:18.896Z,18.50
2018-07-09T00:41:48.282Z,18.48
2018-07-09T00:44:17.613Z,18.40
2018-07-09T00:46:46.844Z,18.39
2018-07-09T00:49:16.229Z,18.31
2018-07-09T00:51:45.667Z,18.24
2018-07-09T00:54:15.010Z,18.23
2018-07-09T00:56:44.201Z,18.20
2018-07-09T00:59:13.524Z,18.14
2018-07-09T01:01:42.718Z,18.13
2018-07-09T01:04:11.987Z,18.13
2018-07-09T01:06:41.169Z,18.02
2018-07-09T01:09:10.444Z,17.98
2018-07-09T01:11:45.517Z,17.99
2018-07-09T01:14:14.734Z,17.92
2018-07-09T01:16:43.928Z,17.83
2018-07-09T01:19:13.200Z,17.80
2018-07-09T01:21:42.409Z,17.79
2018-07-09T01:24:11.694Z,17.72
2018-07-09T01:26:42.101Z,17.71
2018-07-09T01:29:11.364Z,17.63
2018-07-09T01:31:40.624Z,17.65
2018-07-09T01:34:09.929Z,17.56
2018-07-09T01:36:39.140Z,17.53
2018-07-09T01:39:08.528Z,17.53
2018-07-09T01:41:37.740Z,17.47
2018-07-09T01:44:06.902Z,17.42
2018-07-09T01:46:36.155Z,17.39
2018-07-09T01:49:05.369Z,17.35
2018-07-09T01:51:34.601Z,17.33
2018-07-09T01:54:03.869Z,17.30
2018-07-09T01:56:33.149Z,17.31
2018-07-09T01:59:02.305Z,17.20
2018-07-09T02:01:31.596Z,17.12
2018-07-09T02:04:00.809Z,17.13
2018-07-09T02:06:30.068Z,17.12
2018-07-09T02:08:59.308Z,17.05
2018-07-09T02:11:28.553Z,16.94
2018-07-09T02:13:57.723Z,16.94
2018-07-09T02:16:27.145Z,16.87
2018-07-09T02:18:56.285Z,16.85
2018-07-09T02:21:25.572Z,16.79
2018-07-09T02:23:55.149Z,16.78
2018-07-09T02:26:24.433Z,16.76
2018-07-09T02:28:53.608Z,16.70
2018-07-09T02:31:22.884Z,16.63
2018-07-09T02:33:52.087Z,16.63
2018-07-09T02:36:21.349Z,16.70
2018-07-09T02:38:50.640Z,16.69
2018-07-09T02:41:19.866Z,16.59
2018-07-09T02:43:49.126Z,16.57
2018-07-09T02:46:18.298Z,16.60
2018-07-09T02:48:47.524Z,16.62
2018-07-09T02:51:16.709Z,16.49
2018-07-09T02:53:45.925Z,16.42
2018-07-09T02:56:15.081Z,16.38
2018-07-09T02:58:44.313Z,16.40
2018-07-09T03:01:13.580Z,16.34
2018-07-09T03:03:42.906Z,16.39
2018-07-09T03:06:12.077Z,16.31
2018-07-09T03:08:41.304Z,16.32
2018-07-09T03:11:10.487Z,16.34
2018-07-09T03:13:39.693Z,16.34
2018-07-09T03:16:08.928Z,16.30
2018-07-09T03:18:38.239Z,16.26
2018-07-09T03:21:07.628Z,16.23
2018-07-09T03:23:36.889Z,16.21
2018-07-09T03:26:06.061Z,16.13
2018-07-09T03:28:35.281Z,16.06
2018-07-09T03:31:04.560Z,16.04
2018-07-09T03:33:33.804Z,16.08
2018-07-09T03:36:02.987Z,16.09
2018-07-09T03:38:32.200Z,16.12
2018-07-09T03:41:01.493Z,16.10
2018-07-09T03:43:30.659Z,16.08
2018-07-09T03:45:59.902Z,16.14
2018-07-09T03:48:29.128Z,16.19
2018-07-09T03:50:58.378Z,16.17
2018-07-09T03:53:27.540Z,16.21
2018-07-09T03:55:56.773Z,16.28
2018-07-09T03:58:26.040Z,16.29
2018-07-09T04:00:55.282Z,16.36
2018-07-09T04:03:24.432Z,16.29
2018-07-09T04:05:53.777Z,16.34
2018-07-09T04:08:22.922Z,16.38
2018-07-09T04:10:52.148Z,16.46
2018-07-09T04:13:21.302Z,16.46
2018-07-09T04:15:50.539Z,16.50
2018-07-09T04:18:23.097Z,16.58
2018-07-09T04:20:53.276Z,16.63
2018-07-09T04:23:22.532Z,16.68
2018-07-09T04:25:51.905Z,16.73
2018-07-09T04:28:21.477Z,16.84
2018-07-09T04:30:51.555Z,16.97
2018-07-09T04:33:20.845Z,17.14
2018-07-09T04:35:50.059Z,17.34
2018-07-09T04:38:19.252Z,17.53
2018-07-09T04:40:48.469Z,17.67
2018-07-09T04:43:17.738Z,17.92
2018-07-09T04:45:47.201Z,18.08
2018-07-09T04:48:16.325Z,18.19
2018-07-09T04:50:45.461Z,18.50
2018-07-09T04:53:14.629Z,18.61
2018-07-09T04:55:43.793Z,18.79
2018-07-09T04:58:12.927Z,18.90
2018-07-09T05:00:42.124Z,19.12
2018-07-09T05:03:11.238Z,19.43
2018-07-09T05:05:40.553Z,19.29
2018-07-09T05:08:09.612Z,19.53
2018-07-09T05:10:38.951Z,19.64
2018-07-09T05:13:08.146Z,19.62
2018-07-09T05:15:37.288Z,19.65
2018-07-09T05:18:06.694Z,20.28
2018-07-09T05:20:35.907Z,20.04
2018-07-09T05:23:06.268Z,19.98
2018-07-09T05:25:35.731Z,20.19
2018-07-09T05:28:04.969Z,20.00
2018-07-09T05:30:34.133Z,20.24
2018-07-09T05:33:03.317Z,20.52
2018-07-09T05:35:32.496Z,20.75
2018-07-09T05:38:01.875Z,20.38
2018-07-09T05:40:31.365Z,20.48
2018-07-09T05:43:00.796Z,20.26
2018-07-09T05:45:30.088Z,20.79
2018-07-09T05:47:59.510Z,20.81
2018-07-09T05:50:28.765Z,21.47
2018-07-09T05:52:58.183Z,21.36
2018-07-09T05:55:27.405Z,21.29
2018-07-09T05:57:56.608Z,21.48
2018-07-09T06:00:26.044Z,21.51
2018-07-09T06:02:55.220Z,21.32
2018-07-09T06:05:24.417Z,21.17
2018-07-09T06:07:53.669Z,21.01
2018-07-09T06:10:22.852Z,20.78
2018-07-09T06:12:52.053Z,20.78
2018-07-09T06:15:21.197Z,20.79
2018-07-09T06:17:50.670Z,20.85
2018-07-09T06:20:19.924Z,20.29
2018-07-09T06:22:49.415Z,20.35
2018-07-09T06:25:18.656Z,20.09
2018-07-09T06:27:47.823Z,19.75
2018-07-09T06:30:17.096Z,20.08
2018-07-09T06:32:46.258Z,19.84
2018-07-09T06:35:15.437Z,19.95
2018-07-09T06:37:44.582Z,19.98
2018-07-09T06:40:13.805Z,19.74
2018-07-09T06:42:42.965Z,19.98
2018-07-09T06:45:12.191Z,19.87
2018-07-09T06:47:41.377Z,19.89
2018-07-09T06:50:10.718Z,20.21
2018-07-09T06:52:39.954Z,20.50
2018-07-09T06:55:09.377Z,20.45
2018-07-09T06:57:38.555Z,20.04
2018-07-09T07:00:07.773Z,20.10
2018-07-09T07:02:36.977Z,20.23
2018-07-09T07:05:06.481Z,20.56
2018-07-09T07:07:35.697Z,20.69
2018-07-09T07:10:04.969Z,20.50
2018-07-09T07:12:34.186Z,20.71
2018-07-09T07:15:03.591Z,20.92
2018-07-09T07:17:32.768Z,20.98
2018-07-09T07:20:02.371Z,21.14
2018-07-09T07:22:31.569Z,21.16
2018-07-09T07:25:00.785Z,20.88
2018-07-09T07:27:30.275Z,20.39
2018-07-09T07:29:59.577Z,20.10
2018-07-09T07:32:28.766Z,19.99
2018-07-09T07:34:57.987Z,20.34
2018-07-09T07:37:27.129Z,20.55
2018-07-09T07:39:56.328Z,20.58
2018-07-09T07:42:25.487Z,20.63
2018-07-09T07:44:54.722Z,21.04
2018-07-09T07:47:23.874Z,21.19
2018-07-09T07:49:55.385Z,21.31
2018-07-09T07:52:24.909Z,21.39
2018-07-09T07:54:54.304Z,21.23
2018-07-09T07:57:25.361Z,19.64
2018-07-09T07:59:54.773Z,21.50
2018-07-09T08:02:24.035Z,21.62
2018-07-09T08:04:53.579Z,21.60
2018-07-09T08:07:22.773Z,21.64
2018-07-09T08:09:53.013Z,21.93
2018-07-09T08:14:52.015Z,22.43
2018-07-09T08:17:21.411Z,22.58
2018-07-09T08:19:50.687Z,22.45
2018-07-09T08:22:19.947Z,22.27
2018-07-09T08:24:49.417Z,22.25
2018-07-09T08:27:18.665Z,22.70
2018-07-09T08:29:48.705Z,22.81
2018-07-09T08:32:18.003Z,23.42
2018-07-09T08:34:47.287Z,23.93
2018-07-09T08:37:16.520Z,23.87
2018-07-09T08:39:45.918Z,23.71
2018-07-09T08:42:15.210Z,23.77
2018-07-09T08:44:44.677Z,23.52
2018-07-09T08:47:14.436Z,23.21
2018-07-09T08:49:43.733Z,23.31
2018-07-09T08:52:12.946Z,23.79
2018-07-09T08:54:42.154Z,24.47
2018-07-09T08:57:11.306Z,24.03
2018-07-09T08:59:40.550Z,24.51
2018-07-09T09:02:09.925Z,24.67
2018-07-09T09:04:39.404Z,24.99
2018-07-09T09:07:08.634Z,24.51
2018-07-09T09:09:37.817Z,25.22
2018-07-09T09:12:07.359Z,25.80
2018-07-09T09:14:36.728Z,25.84
2018-07-09T09:17:06.012Z,25.59
2018-07-09T09:19:35.238Z,25.16
2018-07-09T09:22:04.507Z,24.84
2018-07-09T09:24:33.910Z,24.43
2018-07-09T09:27:03.144Z,24.75
2018-07-09T09:29:32.500Z,24.50
2018-07-09T09:32:02.076Z,25.01
2018-07-09T09:34:31.521Z,24.83
2018-07-09T09:37:01.038Z,24.94
2018-07-09T09:39:30.277Z,25.55
2018-07-09T09:42:00.953Z,25.44
2018-07-09T09:44:30.346Z,25.79
2018-07-09T09:46:59.614Z,25.68
2018-07-09T09:49:29.551Z,25.55
2018-07-09T09:51:58.888Z,25.96
2018-07-09T09:54:28.146Z,26.61
2018-07-09T09:56:57.552Z,26.82
2018-07-09T09:59:26.965Z,26.94
2018-07-09T10:01:56.402Z,27.00
2018-07-09T10:04:25.652Z,26.79
2018-07-09T10:06:54.897Z,26.89
2018-07-09T10:09:24.119Z,26.75
2018-07-09T10:11:53.393Z,26.89
2018-07-09T10:14:22.636Z,27.05
2018-07-09T10:16:51.937Z,26.74
2018-07-09T10:19:21.117Z,26.38
2018-07-09T10:21:50.361Z,26.99
2018-07-09T10:24:19.702Z,26.89
2018-07-09T10:26:49.058Z,26.54
2018-07-09T10:29:18.190Z,26.44
2018-07-09T10:31:47.564Z,26.03
2018-07-09T10:34:16.813Z,26.39
2018-07-09T10:36:46.001Z,27.00
2018-07-09T10:39:15.217Z,27.74
2018-07-09T10:41:44.454Z,27.37
2018-07-09T10:44:13.701Z,27.53
2018-07-09T10:46:42.947Z,27.66
2018-07-09T10:49:12.334Z,27.78
2018-07-09T10:51:41.647Z,27.58
2018-07-09T10:54:10.809Z,27.77
2018-07-09T10:56:40.043Z,28.30
2018-07-09T10:59:09.430Z,27.83
2018-07-09T11:01:38.749Z,27.88
2018-07-09T11:04:08.065Z,27.99
2018-07-09T11:06:37.297Z,27.32
2018-07-09T11:09:07.958Z,27.63
2018-07-09T11:11:37.652Z,27.33
2018-07-09T11:14:06.859Z,27.94
2018-07-09T11:16:36.183Z,28.37
2018-07-09T11:19:05.364Z,28.79
2018-07-09T11:21:34.714Z,27.92
2018-07-09T11:24:03.967Z,28.29
2018-07-09T11:26:33.192Z,28.90
2018-07-09T11:29:02.365Z,29.02
2018-07-09T11:31:32.648Z,29.07
2018-07-09T11:34:01.966Z,29.05
2018-07-09T11:36:31.265Z,28.64
2018-07-09T11:39:00.449Z,28.22
2018-07-09T11:41:29.680Z,28.59
2018-07-09T11:43:59.105Z,29.39
2018-07-09T11:46:28.398Z,29.52
2018-07-09T11:48:57.706Z,29.15
2018-07-09T11:51:26.985Z,28.71
2018-07-09T11:53:56.268Z,29.04
2018-07-09T11:56:25.504Z,29.20
2018-07-09T11:58:54.905Z,29.02
2018-07-09T12:01:24.187Z,28.72
2018-07-09T12:03:53.551Z,28.51
2018-07-09T12:06:22.805Z,28.37
2018-07-09T12:08:52.194Z,27.27
2018-07-09T12:11:21.412Z,27.39
2018-07-09T12:13:50.553Z,28.11
2018-07-09T12:16:19.840Z,28.04
2018-07-09T12:18:49.178Z,28.33
2018-07-09T12:21:18.655Z,28.93
2018-07-09T12:23:47.852Z,29.31
2018-07-09T12:26:17.100Z,29.23
2018-07-09T12:28:46.376Z,29.55
2018-07-09T12:31:15.743Z,27.90
2018-07-09T12:33:44.980Z,29.48
2018-07-09T12:36:14.341Z,29.51
2018-07-09T12:38:43.801Z,29.89
2018-07-09T12:41:13.104Z,30.24
2018-07-09T12:43:42.511Z,29.61
2018-07-09T12:46:11.721Z,29.38
2018-07-09T12:48:41.228Z,29.66
2018-07-09T12:51:10.591Z,28.99
2018-07-09T12:53:39.889Z,28.33
2018-07-09T12:56:09.208Z,27.25
2018-07-09T12:58:38.423Z,26.80
2018-07-09T13:01:07.877Z,26.99
2018-07-09T13:03:37.137Z,27.25
2018-07-09T13:06:06.523Z,28.05
2018-07-09T13:08:35.726Z,28.52
2018-07-09T13:11:05.098Z,28.69
2018-07-09T13:13:35.140Z,28.27
2018-07-09T13:16:04.456Z,28.13
2018-07-09T13:18:33.819Z,28.25
2018-07-09T13:21:04.050Z,28.51
2018-07-09T13:23:33.806Z,28.86
2018-07-09T13:26:03.070Z,28.62
2018-07-09T13:28:32.353Z,28.43
2018-07-09T13:31:01.710Z,28.04
2018-07-09T13:33:31.109Z,28.00
2018-07-09T13:36:00.556Z,27.84
2018-07-09T13:38:30.435Z,28.40
2018-07-09T13:40:59.597Z,28.33
2018-07-09T13:43:29.356Z,28.33
2018-07-09T13:45:59.097Z,28.53
2018-07-09T13:48:28.489Z,28.56
2018-07-09T13:50:57.945Z,28.56
2018-07-09T13:53:27.506Z,28.94
2018-07-09T13:55:57.036Z,28.93
2018-07-09T13:58:26.506Z,28.55
2018-07-09T14:00:55.981Z,28.28
2018-07-09T14:03:25.252Z,27.82
2018-07-09T14:05:54.725Z,27.91
2018-07-09T14:08:24.111Z,27.65
2018-07-09T14:10:53.533Z,26.98
2018-07-09T14:13:22.908Z,26.33
2018-07-09T14:15:52.154Z,26.10
2018-07-09T14:18:21.524Z,26.01
2018-07-09T14:20:50.924Z,25.91
2018-07-09T14:23:20.178Z,25.70
2018-07-09T14:25:49.489Z,26.10
2018-07-09T14:28:19.154Z,26.23
2018-07-09T14:30:50.876Z,26.49
2018-07-09T14:33:20.134Z,26.10
2018-07-09T14:35:49.352Z,25.89
2018-07-09T14:38:18.580Z,26.04
2018-07-09T14:40:47.865Z,26.08
2018-07-09T14:43:17.140Z,25.96
2018-07-09T14:45:57.509Z,25.62
2018-07-09T14:48:27.044Z,25.44
2018-07-09T14:50:57.539Z,25.69
2018-07-09T14:53:28.212Z,25.69
2018-07-09T14:55:57.345Z,25.70
2018-07-09T14:58:26.549Z,25.86
2018-07-09T15:00:56.723Z,26.27
2018-07-09T15:03:25.999Z,26.34
2018-07-09T15:05:55.249Z,26.41
2018-07-09T15:08:25.158Z,26.73
2018-07-09T15:10:54.297Z,26.26
2018-07-09T15:13:23.722Z,26.02
2018-07-09T15:15:53.076Z,25.80
2018-07-09T15:18:22.293Z,25.69
2018-07-09T15:20:51.660Z,25.44
2018-07-09T15:23:21.147Z,24.93
2018-07-09T15:25:50.429Z,24.87
2018-07-09T15:28:19.609Z,25.17
2018-07-09T15:30:48.968Z,25.36
2018-07-09T15:33:18.227Z,25.72
2018-07-09T15:35:47.474Z,26.06
2018-07-09T15:38:16.801Z,26.22
2018-07-09T15:40:46.109Z,26.25
2018-07-09T15:43:15.527Z,25.49
2018-07-09T15:45:44.657Z,25.44
2018-07-09T15:48:13.906Z,25.29
2018-07-09T15:50:43.155Z,25.16
2018-07-09T15:53:12.329Z,25.54
2018-07-09T15:55:41.461Z,25.81
2018-07-09T15:58:10.797Z,25.60
2018-07-09T16:00:40.041Z,25.70
2018-07-09T16:03:09.306Z,25.44
2018-07-09T16:05:41.714Z,25.12
2018-07-09T16:08:10.967Z,25.46
2018-07-09T16:10:40.364Z,25.67
2018-07-09T16:13:09.874Z,25.54
2018-07-09T16:15:39.106Z,25.54
2018-07-09T16:18:08.416Z,25.23
2018-07-09T16:20:37.673Z,25.58
2018-07-09T16:23:06.886Z,25.88
2018-07-09T16:25:36.125Z,26.06
2018-07-09T16:28:05.317Z,25.70
2018-07-09T16:30:34.458Z,25.81
2018-07-09T16:33:03.876Z,25.49
2018-07-09T16:35:33.004Z,25.66
2018-07-09T16:38:02.263Z,25.37
2018-07-09T16:40:32.177Z,25.22
2018-07-09T16:43:02.167Z,25.15
2018-07-09T16:45:31.360Z,25.18
2018-07-09T16:48:00.679Z,25.40
2018-07-09T16:50:30.064Z,25.32
2018-07-09T16:52:59.402Z,25.49
2018-07-09T16:55:28.682Z,25.76
2018-07-09T16:57:57.982Z,25.30
2018-07-09T17:00:27.230Z,25.40
2018-07-09T17:02:56.581Z,25.29
2018-07-09T17:05:26.254Z,25.18
2018-07-09T17:07:55.716Z,25.44
2018-07-09T17:10:25.157Z,25.26
2018-07-09T17:12:54.514Z,25.12
2018-07-09T17:15:23.758Z,25.26
2018-07-09T17:17:53.009Z,25.22
2018-07-09T17:20:23.333Z,25.32
2018-07-09T17:22:52.942Z,25.11
2018-07-09T17:25:22.197Z,24.83
2018-07-09T17:27:51.535Z,24.65
2018-07-09T17:30:21.074Z,24.69
2018-07-09T17:32:51.566Z,24.70
2018-07-09T17:35:20.901Z,24.76
2018-07-09T17:37:50.289Z,24.84
2018-07-09T17:40:19.989Z,24.82
2018-07-09T17:42:51.304Z,24.75
2018-07-09T17:45:21.118Z,24.67
2018-07-09T17:48:13.420Z,24.72
2018-07-09T17:51:06.251Z,24.70
2018-07-09T17:53:58.247Z,24.97
2018-07-09T17:56:27.441Z,24.80
2018-07-09T17:58:56.950Z,24.84
2018-07-09T18:01:26.732Z,24.78
2018-07-09T18:03:56.372Z,24.16
2018-07-09T18:06:26.561Z,24.29
2018-07-09T18:08:55.837Z,24.00
2018-07-09T18:11:26.149Z,24.36
2018-07-09T18:13:55.513Z,24.51
2018-07-09T18:16:24.994Z,24.20
2018-07-09T18:18:54.249Z,24.38
2018-07-09T18:21:23.666Z,24.17
2018-07-09T18:23:53.145Z,24.20
2018-07-09T18:26:22.322Z,24.65
2018-07-09T18:28:51.576Z,24.78
2018-07-09T18:31:20.925Z,24.41
2018-07-09T18:33:50.217Z,24.55
2018-07-09T18:36:19.766Z,24.35
2018-07-09T18:38:49.188Z,24.19
2018-07-09T18:41:18.526Z,24.11
2018-07-09T18:43:47.827Z,24.07
2018-07-09T18:46:17.121Z,23.88
2018-07-09T18:48:46.474Z,23.91
2018-07-09T18:51:15.688Z,23.80
2018-07-09T18:53:45.053Z,23.97
2018-07-09T18:56:14.329Z,23.63
2018-07-09T18:58:43.557Z,23.84
2018-07-09T19:01:12.820Z,24.01
2018-07-09T19:03:42.167Z,23.91
2018-07-09T19:07:24.762Z,23.85
2018-07-09T19:09:54.361Z,23.75
2018-07-09T19:12:24.190Z,23.65
2018-07-09T19:14:53.718Z,23.66
2018-07-09T19:18:02.168Z,23.77
2018-07-09T19:20:42.707Z,23.78
2018-07-09T19:23:11.361Z,23.78
2018-07-09T19:25:39.749Z,23.79
2018-07-09T19:28:08.304Z,23.83
2018-07-09T19:30:36.355Z,23.76
2018-07-09T19:33:04.293Z,23.63
2018-07-09T19:38:00.455Z,23.69
2018-07-09T19:40:28.640Z,23.64
2018-07-09T19:42:56.852Z,23.40
2018-07-09T19:45:24.830Z,23.37
2018-07-09T19:47:52.967Z,23.51
2018-07-09T19:50:20.929Z,23.60
2018-07-09T19:52:48.890Z,23.54
2018-07-09T19:55:16.881Z,23.15
2018-07-09T19:57:44.857Z,23.18
2018-07-09T20:00:12.829Z,22.99
2018-07-09T20:02:40.787Z,23.25
2018-07-09T20:05:08.823Z,22.87
2018-07-09T20:07:36.740Z,23.22
2018-07-09T20:10:10.121Z,22.86
2018-07-09T20:12:43.413Z,23.05
2018-07-09T20:15:16.737Z,23.01
2018-07-09T20:17:44.633Z,22.97
2018-07-09T20:20:12.638Z,22.89
2018-07-09T20:22:40.612Z,22.62
2018-07-09T20:25:08.609Z,22.46
2018-07-09T20:27:36.545Z,22.72
2018-07-09T20:30:04.541Z,22.64
2018-07-09T20:32:32.506Z,22.79
2018-07-09T20:35:00.493Z,22.67
2018-07-09T20:37:28.454Z,22.52
2018-07-09T20:39:56.664Z,22.38
2018-07-09T20:42:24.658Z,22.54
2018-07-09T20:44:52.889Z,22.69
2018-07-09T20:47:20.829Z,22.60
2018-07-09T20:49:48.868Z,22.73
2018-07-09T20:52:16.841Z,22.40
2018-07-09T20:54:44.789Z,22.29
2018-07-09T20:57:12.995Z,22.36
2018-07-09T20:59:40.947Z,22.30
2018-07-09T21:02:08.990Z,22.22
2018-07-09T21:04:36.942Z,22.52
2018-07-09T21:07:04.955Z,22.38
2018-07-09T21:09:33.725Z,22.69
2018-07-09T21:12:09.096Z,22.67
2018-07-09T21:14:37.180Z,22.71
2018-07-09T21:17:05.165Z,22.73
2018-07-09T21:19:33.136Z,22.77
2018-07-09T21:22:01.262Z,22.76
2018-07-09T21:24:29.250Z,22.73
2018-07-09T21:26:57.277Z,22.66
2018-07-09T21:29:25.248Z,22.68
2018-07-09T21:31:53.239Z,22.79
2018-07-09T21:34:21.166Z,22.79
2018-07-09T21:36:50.059Z,22.76
2018-07-09T21:39:18.017Z,22.72
2018-07-09T21:41:46.125Z,22.62
2018-07-09T21:44:14.069Z,22.65
2018-07-09T21:46:42.046Z,22.70
2018-07-09T21:49:09.981Z,22.53
2018-07-09T21:51:37.981Z,22.40
2018-07-09T21:54:05.913Z,22.35
2018-07-09T21:56:33.978Z,22.12
2018-07-09T21:59:01.943Z,21.41
2018-07-09T22:01:30.090Z,21.12
2018-07-09T22:03:58.101Z,21.37
2018-07-09T22:06:26.270Z,21.32
2018-07-09T22:08:54.250Z,21.16
2018-07-09T22:11:22.669Z,21.03
2018-07-09T22:13:50.817Z,20.62
2018-07-09T22:16:18.840Z,21.38
2018-07-09T22:18:46.781Z,21.40
2018-07-09T22:21:14.949Z,21.58
2018-07-09T22:23:42.940Z,21.58
2018-07-09T22:26:10.940Z,21.61
2018-07-09T22:28:38.949Z,21.66
2018-07-09T22:31:08.234Z,21.59
2018-07-09T22:33:37.546Z,21.56
2018-07-09T22:36:06.857Z,21.81
2018-07-09T22:38:36.099Z,20.40
2018-07-09T22:41:05.322Z,21.78
2018-07-09T22:43:45.994Z,21.73
2018-07-09T22:46:15.281Z,21.50
2018-07-09T22:48:44.742Z,21.51
2018-07-09T22:51:14.111Z,21.59
2018-07-09T22:53:43.437Z,21.65
2018-07-09T22:56:13.986Z,21.37
2018-07-09T22:58:43.869Z,21.36
2018-07-09T23:01:13.082Z,20.98
2018-07-09T23:03:42.318Z,21.10
2018-07-09T23:06:11.612Z,21.18
2018-07-09T23:08:40.921Z,21.30
2018-07-09T23:11:37.425Z,21.37
2018-07-09T23:16:48.213Z,21.28
2018-07-09T23:20:28.477Z,20.75
2018-07-09T23:22:56.448Z,20.81
2018-07-09T23:25:24.435Z,20.90
2018-07-09T23:27:52.453Z,20.78
2018-07-09T23:30:20.461Z,20.94
2018-07-09T23:32:48.403Z,21.03
2018-07-09T23:35:16.383Z,20.97
2018-07-09T23:37:44.432Z,20.95
2018-07-09T23:40:12.471Z,20.53
2018-07-09T23:42:40.416Z,20.21
2018-07-09T23:45:08.400Z,19.88
2018-07-09T23:47:36.342Z,19.98
2018-07-09T23:50:04.328Z,20.22
2018-07-09T23:52:32.277Z,19.99
2018-07-09T23:55:00.331Z,20.09
2018-07-09T23:59:50.488Z,19.96
